Time;durP1;ratioP1;P1;durP2;ratioP2;P2;SDS_P1;SDS_P2;PMS_P1;PMS_P2;Temp;Humidity;BMP_temperature;BMP_pressure;BME280_temperature;BME280_humidity;BME280_pressure;Samples;Min_cycle;Max_cycle;Signal;HPM_P1;HPM_P2
2021/03/08 00:00:51;;;;;;;11.82;5.30;;;13.00;1843.20;;;;;;5088971;28;20028;-70
2021/03/08 00:03:18;;;;;;;10.80;4.65;;;13.00;1843.20;;;;;;5100787;28;20027;-70
2021/03/08 00:05:44;;;;;;;7.18;4.07;;;13.00;1843.20;;;;;;5101019;28;20028;-69
2021/03/08 00:08:12;;;;;;;9.30;5.00;;;13.00;1843.20;;;;;;5100657;28;20046;-69
2021/03/08 00:10:38;;;;;;;7.80;4.38;;;13.00;1868.80;;;;;;5100921;28;20055;-71
2021/03/08 00:13:04;;;;;;;8.43;4.65;;;13.00;1868.80;;;;;;5100824;28;20356;-71
2021/03/08 00:15:30;;;;;;;8.57;4.85;;;13.20;1868.80;;;;;;5099900;28;20123;-70
2021/03/08 00:17:59;;;;;;;8.65;4.45;;;13.10;1868.80;;;;;;5100762;28;20031;-71
2021/03/08 00:20:27;;;;;;;9.40;4.18;;;13.10;1894.40;;;;;;5100754;28;20406;-70
2021/03/08 00:22:54;;;;;;;8.20;4.70;;;13.10;1894.40;;;;;;5100137;28;20366;-71
2021/03/08 00:25:23;;;;;;;9.38;4.15;;;13.20;1894.40;;;;;;5100325;28;20039;-69
2021/03/08 00:27:51;;;;;;;9.13;4.70;;;13.20;1894.40;;;;;;5100618;28;20020;-71
2021/03/08 00:30:18;;;;;;;7.55;4.25;;;13.30;1920.00;;;;;;5113030;28;20028;-71
2021/03/08 00:32:44;;;;;;;10.27;4.38;;;13.30;1920.00;;;;;;5095547;28;20342;-70
2021/03/08 00:35:11;;;;;;;8.75;4.57;;;13.30;1920.00;;;;;;5099694;28;20028;-71
2021/03/08 00:37:37;;;;;;;9.45;4.40;;;13.40;1920.00;;;;;;5100419;28;20031;-71
2021/03/08 00:40:06;;;;;;;8.00;4.43;;;13.40;1920.00;;;;;;5100093;28;20024;-70
2021/03/08 00:42:33;;;;;;;8.50;4.38;;;13.40;1920.00;;;;;;5093734;28;20028;-69
2021/03/08 00:44:59;;;;;;;8.82;4.75;;;13.50;1945.60;;;;;;5100012;28;20060;-71
2021/03/08 00:47:25;;;;;;;9.23;4.22;;;13.50;1945.60;;;;;;5100175;28;20056;-69
2021/03/08 00:49:51;;;;;;;8.80;4.35;;;13.40;1945.60;;;;;;5099911;28;20035;-69
2021/03/08 00:52:17;;;;;;;8.70;4.40;;;13.50;1920.00;;;;;;5086528;28;20430;-69
2021/03/08 00:54:43;;;;;;;12.88;4.80;;;13.50;1945.60;;;;;;5079339;28;20052;-69
2021/03/08 00:57:09;;;;;;;8.30;3.95;;;13.50;1945.60;;;;;;5079196;28;20078;-69
2021/03/08 00:59:35;;;;;;;7.95;4.50;;;13.50;1945.60;;;;;;5079469;28;20031;-69
2021/03/08 01:02:05;;;;;;;12.02;4.65;;;13.50;1945.60;;;;;;5083812;28;20406;-69
2021/03/08 01:04:30;;;;;;;10.65;4.50;;;13.60;1945.60;;;;;;5078814;28;20028;-70
2021/03/08 01:06:56;;;;;;;8.02;4.22;;;13.50;1945.60;;;;;;5079328;28;20024;-71
2021/03/08 01:09:22;;;;;;;8.65;4.63;;;13.50;1945.60;;;;;;5079553;28;20024;-70
2021/03/08 01:11:48;;;;;;;7.68;4.30;;;13.50;1945.60;;;;;;5078964;28;20032;-69
2021/03/08 01:14:14;;;;;;;8.73;4.82;;;13.50;1945.60;;;;;;5079389;28;20029;-71
2021/03/08 01:16:41;;;;;;;7.32;4.45;;;13.60;1945.60;;;;;;5092221;28;20024;-70
2021/03/08 01:19:07;;;;;;;8.40;4.88;;;13.60;1945.60;;;;;;5099112;28;20051;-70
2021/03/08 01:21:33;;;;;;;9.32;4.70;;;13.50;1945.60;;;;;;5099586;28;20081;-71
2021/03/08 01:23:59;;;;;;;7.13;4.82;;;13.50;1945.60;;;;;;5098952;28;20038;-69
2021/03/08 01:26:25;;;;;;;12.02;4.57;;;13.50;1945.60;;;;;;5098930;28;20027;-72
2021/03/08 01:28:51;;;;;;;8.43;4.97;;;13.50;1971.20;;;;;;5099141;28;20024;-72
2021/03/08 01:31:17;;;;;;;9.25;4.35;;;13.50;1945.60;;;;;;5099112;28;20024;-70
2021/03/08 01:33:42;;;;;;;8.25;4.55;;;13.50;1945.60;;;;;;5098981;28;20027;-70
2021/03/08 01:36:08;;;;;;;10.07;4.25;;;13.60;1971.20;;;;;;5098843;28;20082;-70
2021/03/08 01:38:34;;;;;;;8.40;4.43;;;13.70;1971.20;;;;;;5098654;28;20028;-68
2021/03/08 01:41:00;;;;;;;10.60;4.35;;;13.70;1971.20;;;;;;5099213;28;20023;-70
2021/03/08 01:43:26;;;;;;;12.25;5.35;;;13.70;1971.20;;;;;;5099123;28;20298;-70
2021/03/08 01:45:52;;;;;;;7.55;4.53;;;13.60;1996.80;;;;;;5098802;28;20027;-70
2021/03/08 01:48:19;;;;;;;8.73;4.80;;;13.70;1996.80;;;;;;5098790;28;20425;-70
2021/03/08 01:50:47;;;;;;;11.25;5.65;;;13.60;1971.20;;;;;;5098762;28;20073;-71
2021/03/08 01:53:17;;;;;;;9.35;4.60;;;13.60;1971.20;;;;;;5097903;28;20054;-70
2021/03/08 01:55:44;;;;;;;8.00;4.22;;;13.60;1971.20;;;;;;5098781;28;20071;-70
2021/03/08 01:58:12;;;;;;;9.57;3.70;;;13.70;1971.20;;;;;;5111143;28;20131;-71
2021/03/08 02:00:39;;;;;;;7.70;4.30;;;13.70;1971.20;;;;;;5098481;28;20028;-70
2021/03/08 02:03:05;;;;;;;7.72;4.15;;;13.60;1971.20;;;;;;5098485;28;20039;-71
2021/03/08 02:05:35;;;;;;;9.07;4.72;;;13.70;1971.20;;;;;;5098146;28;20024;-72
2021/03/08 02:08:03;;;;;;;8.65;5.00;;;13.70;1971.20;;;;;;5098352;28;20016;-69
2021/03/08 02:10:30;;;;;;;10.52;4.80;;;13.60;1996.80;;;;;;5098373;28;20360;-71
2021/03/08 02:13:19;;;;;;;11.18;5.18;;;13.70;1971.20;;;;;;5097430;28;20024;-70
2021/03/08 02:16:06;;;;;;;7.70;4.72;;;13.70;1996.80;;;;;;5092730;28;20040;-71
2021/03/08 02:18:46;;;;;;;8.88;4.93;;;38.40;1996.80;;;;;;5098481;28;20345;-70
2021/03/08 02:21:24;;;;;;;10.50;4.80;;;38.40;1996.80;;;;;;5097910;28;20317;-70
2021/03/08 02:24:14;;;;;;;8.98;4.85;;;38.40;2022.40;;;;;;5092490;28;20032;-71
2021/03/08 02:27:03;;;;;;;9.43;5.18;;;38.40;2022.40;;;;;;5086323;28;20029;-71
2021/03/08 02:29:47;;;;;;;11.13;5.63;;;38.50;2022.40;;;;;;5084760;28;20046;-72
2021/03/08 02:32:15;;;;;;;9.70;5.22;;;38.40;2022.40;;;;;;5085036;28;20081;-69
2021/03/08 02:34:48;;;;;;;9.85;5.25;;;38.50;2022.40;;;;;;5083376;28;20036;-71
2021/03/08 02:37:24;;;;;;;9.35;4.60;;;38.50;2022.40;;;;;;5084613;28;20649;-69
2021/03/08 02:39:53;;;;;;;8.45;4.68;;;38.50;2048.00;;;;;;5084602;28;20103;-71
2021/03/08 02:42:25;;;;;;;12.23;5.35;;;38.50;2048.00;;;;;;5083696;28;20028;-72
2021/03/08 02:44:58;;;;;;;9.70;5.03;;;38.60;2048.00;;;;;;5084615;28;20028;-69
2021/03/08 02:47:30;;;;;;;7.93;4.88;;;38.50;2048.00;;;;;;5083673;28;20028;-70
2021/03/08 02:49:58;;;;;;;9.30;4.95;;;38.50;2048.00;;;;;;5084099;28;20329;-70
2021/03/08 02:52:29;;;;;;;7.97;4.78;;;38.60;2048.00;;;;;;5084011;28;20325;-71
2021/03/08 02:54:57;;;;;;;9.77;5.82;;;38.60;2048.00;;;;;;5084141;28;20047;-68
2021/03/08 02:57:28;;;;;;;9.95;5.45;;;38.60;2048.00;;;;;;5074528;28;20060;-69
2021/03/08 02:59:56;;;;;;;7.75;4.95;;;38.60;2073.60;;;;;;5075004;28;20333;-71
2021/03/08 03:02:23;;;;;;;13.88;5.32;;;38.60;2048.00;;;;;;5074574;28;20079;-71
2021/03/08 03:04:50;;;;;;;8.80;5.70;;;38.60;2048.00;;;;;;5075021;28;20033;-69
2021/03/08 03:07:17;;;;;;;7.80;4.93;;;38.50;2048.00;;;;;;5075217;28;20033;-69
2021/03/08 03:09:45;;;;;;;9.52;4.72;;;38.50;2048.00;;;;;;5075005;28;20032;-69
2021/03/08 03:12:12;;;;;;;8.63;5.28;;;38.60;2048.00;;;;;;5075104;28;20021;-69
2021/03/08 03:14:41;;;;;;;10.98;5.43;;;38.60;2048.00;;;;;;5074959;28;20105;-71
2021/03/08 03:17:09;;;;;;;8.90;5.03;;;38.50;2048.00;;;;;;5074764;28;20418;-70
2021/03/08 03:19:38;;;;;;;10.20;5.20;;;38.60;2073.60;;;;;;5074602;28;20318;-70
2021/03/08 03:22:04;;;;;;;;;;;38.60;2073.60;;;;;;5075367;28;20056;-70
2021/03/08 03:24:31;;;;;;;8.65;4.90;;;38.60;2048.00;;;;;;5075091;28;19908;-69
2021/03/08 03:27:03;;;;;;;11.82;4.78;;;38.60;2048.00;;;;;;5078297;28;20024;-69
2021/03/08 03:29:31;;;;;;;8.80;4.50;;;38.60;2048.00;;;;;;5078940;28;20028;-71
2021/03/08 03:31:58;;;;;;;8.53;5.17;;;38.50;2048.00;;;;;;5078658;28;20108;-69
2021/03/08 03:34:25;;;;;;;9.48;5.05;;;38.50;2048.00;;;;;;5078765;28;20395;-69
2021/03/08 03:36:52;;;;;;;10.38;5.55;;;38.60;2048.00;;;;;;5078691;28;20067;-71
2021/03/08 03:39:18;;;;;;;9.00;5.10;;;38.50;2048.00;;;;;;5078305;28;20405;-69
2021/03/08 03:41:44;;;;;;;9.27;4.85;;;38.50;2048.00;;;;;;5078793;28;20036;-71
2021/03/08 03:44:11;;;;;;;10.85;5.70;;;38.60;2048.00;;;;;;5078608;28;20028;-69
2021/03/08 03:46:47;;;;;;;11.20;5.80;;;38.60;2048.00;;;;;;5078761;28;20025;-70
2021/03/08 03:49:17;;;;;;;9.02;5.00;;;38.60;2048.00;;;;;;5078768;28;20021;-70
2021/03/08 03:51:43;;;;;;;9.38;5.65;;;38.60;2022.40;;;;;;5078521;28;20035;-70
2021/03/08 03:54:10;;;;;;;10.48;6.13;;;38.60;2048.00;;;;;;5078676;28;20056;-71
2021/03/08 03:56:42;;;;;;;10.57;6.20;;;38.60;2048.00;;;;;;5078587;28;20036;-71
2021/03/08 03:59:23;;;;;;;12.07;6.13;;;38.60;2022.40;;;;;;5077839;28;20333;-69
2021/03/08 04:02:00;;;;;;;11.13;5.88;;;38.50;2022.40;;;;;;5078272;28;20430;-70
2021/03/08 04:04:40;;;;;;;12.48;6.65;;;38.50;2022.40;;;;;;5098465;28;20028;-69
2021/03/08 04:07:08;;;;;;;13.13;6.20;;;38.50;2022.40;;;;;;5098131;28;20028;-70
2021/03/08 04:09:36;;;;;;;16.45;7.85;;;38.60;2048.00;;;;;;5098401;28;20474;-70
2021/03/08 04:12:07;;;;;;;12.48;6.68;;;38.60;2048.00;;;;;;5097954;28;20390;-70
2021/03/08 04:14:34;;;;;;;16.70;8.55;;;38.70;2073.60;;;;;;5097856;28;20114;-70
2021/03/08 04:17:00;;;;;;;18.65;10.02;;;38.80;2073.60;;;;;;5087134;28;20024;-71
2021/03/08 04:19:32;;;;;;;19.48;10.88;;;38.80;2099.20;;;;;;5077748;28;20035;-69
2021/03/08 04:22:06;;;;;;;21.75;11.05;;;38.90;2124.80;;;;;;5087669;28;20020;-70
2021/03/08 04:24:33;;;;;;;25.17;10.65;;;39.00;2124.80;;;;;;5097986;28;20028;-69
2021/03/08 04:27:05;;;;;;;16.58;8.05;;;39.00;2124.80;;;;;;5094576;28;20040;-71
2021/03/08 04:29:37;;;;;;;15.68;8.25;;;39.00;2124.80;;;;;;5098447;28;20020;-69
2021/03/08 04:32:03;;;;;;;14.95;8.27;;;38.90;2099.20;;;;;;5098073;28;20032;-71
2021/03/08 04:34:31;;;;;;;14.43;7.18;;;38.90;2099.20;;;;;;5097747;28;20032;-71
2021/03/08 04:36:59;;;;;;;13.95;6.40;;;38.80;2099.20;;;;;;5096553;28;20441;-69
2021/03/08 04:39:27;;;;;;;17.08;7.32;;;38.80;2099.20;;;;;;5097539;28;20494;-69
2021/03/08 04:41:53;;;;;;;14.77;5.93;;;38.80;2099.20;;;;;;5097218;28;20572;-71
2021/03/08 04:44:20;;;;;;;12.68;6.30;;;38.80;2099.20;;;;;;5097724;28;20056;-69
2021/03/08 04:46:47;;;;;;;10.63;6.13;;;38.80;2124.80;;;;;;5091562;28;20038;-69
2021/03/08 04:49:13;;;;;;;15.65;6.50;;;38.90;2124.80;;;;;;5086790;28;20028;-71
2021/03/08 04:51:40;;;;;;;11.30;6.60;;;38.90;2124.80;;;;;;5092622;28;20028;-69
2021/03/08 04:54:07;;;;;;;10.98;6.07;;;38.90;2124.80;;;;;;5097867;28;20455;-71
2021/03/08 04:56:34;;;;;;;12.55;6.10;;;38.90;2124.80;;;;;;5081213;28;20037;-71
2021/03/08 04:59:02;;;;;;;10.70;6.45;;;38.80;2124.80;;;;;;5079449;28;20075;-69
2021/03/08 05:01:32;;;;;;;11.13;6.07;;;38.80;2124.80;;;;;;5087328;28;20016;-69
2021/03/08 05:04:00;;;;;;;13.15;6.40;;;38.80;2124.80;;;;;;5086535;28;20066;-70
2021/03/08 05:06:28;;;;;;;15.52;6.88;;;38.80;2124.80;;;;;;5083197;28;20031;-69
2021/03/08 05:08:55;;;;;;;11.43;6.13;;;38.90;2150.40;;;;;;5077089;28;20032;-69
2021/03/08 05:11:21;;;;;;;13.20;6.43;;;38.90;2150.40;;;;;;5077111;28;20060;-70
2021/03/08 05:13:49;;;;;;;13.18;6.70;;;38.90;2150.40;;;;;;5076410;28;20457;-70
2021/03/08 05:16:17;;;;;;;14.45;7.10;;;38.90;2176.00;;;;;;5076557;28;20066;-71
2021/03/08 05:18:45;;;;;;;13.05;7.18;;;38.90;2176.00;;;;;;5076691;28;20032;-69
2021/03/08 05:21:13;;;;;;;42.20;21.55;;;38.90;2176.00;;;;;;5076843;28;20039;-69
2021/03/08 05:23:41;;;;;;;101.70;51.88;;;38.80;2150.40;;;;;;5076340;28;20127;-71
2021/03/08 05:26:08;;;;;;;65.43;41.90;;;38.80;2150.40;;;;;;5076740;28;20032;-69
2021/03/08 05:28:34;;;;;;;28.95;16.83;;;38.70;2150.40;;;;;;5076872;28;20024;-71
2021/03/08 05:31:02;;;;;;;13.63;8.45;;;38.70;2150.40;;;;;;5076399;28;20346;-70
2021/03/08 05:33:30;;;;;;;13.20;8.07;;;38.60;2150.40;;;;;;5076315;28;20083;-71
2021/03/08 05:36:01;;;;;;;13.75;7.40;;;38.50;2124.80;;;;;;5075938;28;20040;-69
2021/03/08 05:38:29;;;;;;;15.50;8.13;;;38.40;2124.80;;;;;;5076215;28;20085;-69
2021/03/08 05:41:24;;;;;;;17.95;9.00;;;38.40;2124.80;;;;;;5084556;28;20425;-70
2021/03/08 05:43:53;;;;;;;15.38;7.85;;;38.40;2124.80;;;;;;5096119;28;20059;-70
2021/03/08 05:46:22;;;;;;;14.27;7.65;;;13.70;2124.80;;;;;;5096443;28;20126;-71
2021/03/08 05:49:18;;;;;;;17.52;7.32;;;13.70;2124.80;;;;;;5084832;28;20047;-70
2021/03/08 05:51:53;;;;;;;16.70;7.50;;;13.70;2124.80;;;;;;5076142;28;20406;-69
2021/03/08 05:54:37;;;;;;;13.35;7.25;;;13.60;2124.80;;;;;;5085140;28;20048;-69
2021/03/08 05:57:14;;;;;;;13.85;7.47;;;13.50;2124.80;;;;;;5094865;28;20040;-70
2021/03/08 06:00:10;;;;;;;18.70;9.60;;;13.40;2099.20;;;;;;5096700;28;20024;-72
2021/03/08 06:02:39;;;;;;;55.15;28.00;;;13.20;2099.20;;;;;;5094344;28;20045;-69
2021/03/08 06:05:43;;;;;;;23.17;14.60;;;13.10;2099.20;;;;;;5077074;28;20028;-70
2021/03/08 06:08:21;;;;;;;26.65;16.83;;;13.00;2073.60;;;;;;5059981;28;20082;-71
2021/03/08 06:11:05;;;;;;;17.47;9.63;;;12.90;2073.60;;;;;;5077660;28;20025;-69
2021/03/08 06:13:43;;;;;;;16.40;9.02;;;0.00;2048.00;;;;;;5077457;28;20543;-71
2021/03/08 06:16:15;;;;;;;17.17;9.50;;;0.20;2073.60;;;;;;5078017;28;20520;-69
2021/03/08 06:18:45;;;;;;;21.55;13.60;;;0.30;2073.60;;;;;;5077437;28;20028;-70
2021/03/08 06:21:14;;;;;;;23.77;13.10;;;0.50;2022.40;;;;;;5077630;28;20024;-69
2021/03/08 06:23:44;;;;;;;21.60;13.15;;;0.70;1996.80;;;;;;5078134;28;20020;-72
2021/03/08 06:26:12;;;;;;;25.92;13.85;;;0.80;2048.00;;;;;;5077908;28;20407;-69
2021/03/08 06:28:38;;;;;;;29.27;12.93;;;0.80;2048.00;;;;;;5077462;28;20020;-71
2021/03/08 06:31:04;;;;;;;25.75;13.07;;;25.60;2048.00;;;;;;5077702;28;20330;-69
2021/03/08 06:33:31;;;;;;;100.40;46.72;;;25.60;2073.60;;;;;;5077428;28;20016;-71
2021/03/08 06:36:01;;;;;;;62.13;31.20;;;25.70;2073.60;;;;;;5077818;28;20040;-71
2021/03/08 06:38:28;;;;;;;38.83;18.50;;;25.90;2048.00;;;;;;5077421;28;20060;-69
2021/03/08 06:40:55;;;;;;;40.22;22.33;;;26.00;2022.40;;;;;;5077322;28;20093;-70
2021/03/08 06:43:21;;;;;;;41.08;24.70;;;26.10;1945.60;;;;;;5077273;28;20134;-70
2021/03/08 06:45:47;;;;;;;28.80;15.10;;;26.30;1945.60;;;;;;5077506;28;20425;-70
2021/03/08 06:48:13;;;;;;;22.13;11.77;;;26.40;1945.60;;;;;;5077507;28;20324;-69
2021/03/08 06:50:39;;;;;;;21.63;11.27;;;26.40;1920.00;;;;;;5077293;28;20024;-71
2021/03/08 06:53:05;;;;;;;18.15;10.82;;;51.20;1971.20;;;;;;5086970;28;20134;-69
2021/03/08 06:55:31;;;;;;;22.60;12.50;;;51.30;1945.60;;;;;;5097323;28;20325;-71
2021/03/08 06:58:17;;;;;;;24.85;13.98;;;51.40;1920.00;;;;;;5095587;28;20036;-70
2021/03/08 07:00:43;;;;;;;28.58;15.45;;;51.60;1792.00;;;;;;5096198;28;20099;-69
2021/03/08 07:03:29;;;;;;;24.75;13.55;;;51.70;1817.60;;;;;;5097099;28;20455;-70
2021/03/08 07:06:09;;;;;;;20.75;12.85;;;51.90;1792.00;;;;;;5097492;28;20024;-71
2021/03/08 07:08:35;;;;;;;23.60;14.38;;;52.00;1792.00;;;;;;5097163;28;20070;-71
2021/03/08 07:11:13;;;;;;;29.17;15.70;;;52.00;1792.00;;;;;;5097691;28;20028;-70
2021/03/08 07:13:39;;;;;;;30.58;15.93;;;76.80;1792.00;;;;;;5097263;28;20078;-71
2021/03/08 07:16:05;;;;;;;26.77;15.60;;;76.80;1817.60;;;;;;5096527;28;20059;-70
2021/03/08 07:18:31;;;;;;;42.72;24.30;;;76.90;1868.80;;;;;;5097282;28;20063;-70
2021/03/08 07:21:12;;;;;;;31.25;15.98;;;77.00;1843.20;;;;;;5094698;28;20017;-71
2021/03/08 07:23:38;;;;;;;35.20;19.00;;;77.10;1868.80;;;;;;5096523;28;20059;-69
2021/03/08 07:26:16;;;;;;;37.80;19.10;;;77.20;1868.80;;;;;;5097226;28;20020;-71
2021/03/08 07:28:43;;;;;;;53.03;25.52;;;77.20;1843.20;;;;;;5095917;28;20119;-70
2021/03/08 07:31:10;;;;;;;44.58;24.02;;;77.40;1817.60;;;;;;5096920;28;20028;-71
2021/03/08 07:33:36;;;;;;;41.38;23.60;;;77.40;1817.60;;;;;;5097110;28;20344;-70
2021/03/08 07:36:13;;;;;;;38.88;21.27;;;77.50;1792.00;;;;;;5096444;28;20088;-72
2021/03/08 07:38:39;;;;;;;33.13;18.75;;;77.60;1766.40;;;;;;5097083;28;20035;-71
2021/03/08 07:41:10;;;;;;;40.97;19.52;;;77.60;1766.40;;;;;;5097361;28;20024;-70
2021/03/08 07:43:37;;;;;;;36.95;19.38;;;77.70;1766.40;;;;;;5096895;28;20031;-72
2021/03/08 07:46:03;;;;;;;34.92;18.70;;;102.40;1766.40;;;;;;5097008;28;20161;-72
2021/03/08 07:48:29;;;;;;;31.75;19.15;;;102.50;1740.80;;;;;;5096411;28;20333;-71
2021/03/08 07:50:55;;;;;;;28.13;17.40;;;102.60;1766.40;;;;;;5096433;28;20020;-69
2021/03/08 07:53:24;;;;;;;39.55;20.27;;;102.70;1715.20;;;;;;5092894;28;20056;-71
2021/03/08 07:55:51;;;;;;;40.83;21.17;;;102.70;1715.20;;;;;;5084350;28;20029;-71
2021/03/08 07:58:18;;;;;;;39.85;21.25;;;102.80;1689.60;;;;;;5087949;28;20051;-71
2021/03/08 08:00:43;;;;;;;42.25;18.95;;;103.00;1689.60;;;;;;5086450;28;20116;-70
2021/03/08 08:03:09;;;;;;;36.08;18.77;;;103.00;1664.00;;;;;;5083898;28;20406;-70
2021/03/08 08:05:35;;;;;;;35.17;20.35;;;103.00;1638.40;;;;;;5085732;28;20016;-72
2021/03/08 08:08:01;;;;;;;29.70;17.73;;;103.10;1612.80;;;;;;5086293;28;20096;-72
2021/03/08 08:10:28;;;;;;;27.17;15.68;;;103.10;1664.00;;;;;;5084365;28;20062;-70
2021/03/08 08:13:01;;;;;;;31.17;17.45;;;103.00;1664.00;;;;;;5089343;28;20433;-70
2021/03/08 08:15:27;;;;;;;32.17;17.23;;;103.20;1664.00;;;;;;5084809;28;20036;-71
2021/03/08 08:17:55;;;;;;;39.72;19.60;;;103.30;1689.60;;;;;;5081650;28;20470;-68
2021/03/08 08:20:32;;;;;;;33.22;17.70;;;103.20;1689.60;;;;;;5080143;28;20024;-71
2021/03/08 08:23:02;;;;;;;30.35;17.55;;;128.00;1715.20;;;;;;5079592;28;20021;-69
2021/03/08 08:25:29;;;;;;;29.00;18.17;;;128.20;1715.20;;;;;;5079831;28;20039;-70
2021/03/08 08:27:56;;;;;;;30.60;17.30;;;128.30;1715.20;;;;;;5080191;28;20060;-70
2021/03/08 08:30:24;;;;;;;31.75;17.73;;;128.40;1715.20;;;;;;5079711;28;20024;-69
2021/03/08 08:32:54;;;;;;;32.90;17.70;;;128.50;1689.60;;;;;;5079376;28;20380;-71
2021/03/08 08:35:23;;;;;;;30.50;17.25;;;128.60;1689.60;;;;;;5079229;28;20429;-71
2021/03/08 08:38:21;;;;;;;29.50;17.25;;;128.60;1689.60;;;;;;5079599;28;20422;-70
2021/03/08 08:40:47;;;;;;;29.15;15.02;;;128.70;1689.60;;;;;;5077995;28;20039;-71
2021/03/08 08:43:16;;;;;;;24.42;15.85;;;128.90;1715.20;;;;;;5079533;28;20100;-71
2021/03/08 08:45:47;;;;;;;31.65;17.98;;;128.90;1664.00;;;;;;5078771;28;20036;-71
2021/03/08 08:48:12;;;;;;;27.25;16.77;;;153.60;1689.60;;;;;;5078459;28;20393;-70
2021/03/08 08:50:52;;;;;;;23.85;15.35;;;153.60;1664.00;;;;;;5079365;28;20108;-69
2021/03/08 08:53:44;;;;;;;26.23;15.70;;;153.70;1664.00;;;;;;5077837;28;20060;-70
2021/03/08 08:56:10;;;;;;;28.48;16.65;;;153.90;1664.00;;;;;;5078119;28;20430;-69
2021/03/08 08:58:45;;;;;;;26.13;16.33;;;154.00;1638.40;;;;;;5079472;28;20029;-71
2021/03/08 09:01:15;;;;;;;28.90;16.52;;;154.10;1638.40;;;;;;5079044;28;20024;-69
2021/03/08 09:03:53;;;;;;;33.22;17.92;;;154.30;1638.40;;;;;;5079319;28;20453;-70
2021/03/08 09:06:46;;;;;;;35.20;18.58;;;154.50;1638.40;;;;;;5079305;28;20050;-69
2021/03/08 09:09:14;;;;;;;40.50;20.52;;;179.20;1612.80;;;;;;5076824;28;20033;-70
2021/03/08 09:11:49;;;;;;;26.70;16.53;;;179.40;1664.00;;;;;;5079500;28;20024;-72
2021/03/08 09:14:51;;;;;;;29.38;16.10;;;179.50;1612.80;;;;;;5079145;28;20257;-72
2021/03/08 09:17:19;;;;;;;27.10;16.63;;;179.50;1561.60;;;;;;5079156;28;20472;-72
2021/03/08 09:20:08;;;;;;;32.15;17.63;;;179.60;1561.60;;;;;;5083634;28;20036;-70
2021/03/08 09:22:44;;;;;;;29.10;15.82;;;179.80;1612.80;;;;;;5084407;28;20097;-71
2021/03/08 09:25:10;;;;;;;24.13;15.30;;;179.90;1587.20;;;;;;5089427;28;20032;-71
2021/03/08 09:27:43;;;;;;;26.58;15.77;;;180.00;1536.00;;;;;;5087448;28;20024;-70
2021/03/08 09:30:15;;;;;;;28.35;16.83;;;180.00;1536.00;;;;;;5088445;28;20024;-73
2021/03/08 09:32:51;;;;;;;25.52;14.43;;;204.80;1510.40;;;;;;5087784;28;20017;-73
2021/03/08 09:35:25;;;;;;;21.70;14.70;;;204.90;1510.40;;;;;;5087061;28;20056;-70
2021/03/08 09:38:03;;;;;;;27.33;15.25;;;205.00;1484.80;;;;;;5086446;28;20021;-70
2021/03/08 09:40:38;;;;;;;24.70;14.40;;;205.00;1484.80;;;;;;5099216;28;20024;-72
2021/03/08 09:43:30;;;;;;;20.17;12.95;;;205.10;1459.20;;;;;;5098341;28;20024;-71
2021/03/08 09:46:06;;;;;;;19.80;11.95;;;205.10;1459.20;;;;;;5097670;28;20077;-71
2021/03/08 09:48:37;;;;;;;19.45;10.65;;;205.20;1433.60;;;;;;5098515;28;20028;-72
2021/03/08 09:51:18;;;;;;;17.35;10.70;;;205.20;1408.00;;;;;;5098434;28;20024;-73
2021/03/08 09:53:55;;;;;;;18.50;11.75;;;205.20;1408.00;;;;;;5098556;28;20056;-70
2021/03/08 09:56:23;;;;;;;17.33;11.50;;;205.30;1433.60;;;;;;5098608;28;20028;-71
2021/03/08 09:59:07;;;;;;;17.70;11.13;;;205.30;1408.00;;;;;;5098252;28;20032;-71
2021/03/08 10:01:33;;;;;;;19.25;10.25;;;205.40;1382.40;;;;;;5098666;28;20024;-70
2021/03/08 10:03:59;;;;;;;14.23;9.20;;;205.40;1408.00;;;;;;5098392;28;20039;-70
2021/03/08 10:06:28;;;;;;;22.63;10.05;;;205.60;1331.20;;;;;;5098356;28;20051;-71
2021/03/08 10:08:59;;;;;;;16.15;9.70;;;205.50;1356.80;;;;;;5098283;28;20099;-70
2021/03/08 10:11:27;;;;;;;16.60;8.88;;;205.60;1356.80;;;;;;5097997;28;20077;-70
2021/03/08 10:13:53;;;;;;;16.50;10.35;;;205.50;1305.60;;;;;;5098483;28;20024;-70
2021/03/08 10:16:23;;;;;;;13.93;9.50;;;205.60;1305.60;;;;;;5098163;28;20042;-72
2021/03/08 10:18:50;;;;;;;17.88;9.98;;;205.60;1305.60;;;;;;5098448;28;20023;-70
2021/03/08 10:21:16;;;;;;;12.55;8.02;;;205.50;1280.00;;;;;;5098271;28;20028;-71
2021/03/08 10:23:42;;;;;;;13.30;6.97;;;205.50;1228.80;;;;;;5097693;28;20028;-71
2021/03/08 10:26:16;;;;;;;14.07;7.85;;;205.60;1203.20;;;;;;5098327;28;20038;-71
2021/03/08 10:28:45;;;;;;;14.55;8.48;;;205.70;1228.80;;;;;;5098277;28;20186;-71
2021/03/08 10:31:21;;;;;;;;;;;230.40;1280.00;;;;;;5097790;28;20027;-72
2021/03/08 10:33:50;;;;;;;13.07;8.60;;;230.40;1254.40;;;;;;5097879;28;19904;-70
2021/03/08 10:36:22;;;;;;;16.80;7.90;;;230.40;1228.80;;;;;;5097795;28;20031;-70
2021/03/08 10:39:02;;;;;;;13.52;8.20;;;230.40;1254.40;;;;;;5085931;28;20115;-73
2021/03/08 10:41:30;;;;;;;12.88;7.78;;;230.60;1254.40;;;;;;5077436;28;20036;-71
2021/03/08 10:44:00;;;;;;;13.77;9.02;;;230.60;1228.80;;;;;;5075936;28;20379;-70
2021/03/08 10:46:30;;;;;;;13.30;8.57;;;230.60;1280.00;;;;;;5077464;28;20036;-72
2021/03/08 10:49:02;;;;;;;13.32;9.00;;;230.60;1228.80;;;;;;5077681;28;20437;-71
2021/03/08 10:51:28;;;;;;;13.98;9.30;;;230.80;1280.00;;;;;;5077288;28;20705;-73
2021/03/08 10:54:02;;;;;;;22.42;10.30;;;230.80;1254.40;;;;;;5077128;28;20098;-69
2021/03/08 10:56:29;;;;;;;14.18;9.18;;;231.00;1228.80;;;;;;5076422;28;20024;-69
2021/03/08 10:58:56;;;;;;;14.43;7.93;;;231.20;1203.20;;;;;;5076174;28;20387;-72
2021/03/08 11:01:24;;;;;;;14.15;8.73;;;231.30;1177.60;;;;;;5092805;28;20153;-71
2021/03/08 11:03:50;;;;;;;14.27;8.88;;;231.30;1203.20;;;;;;5096786;28;20035;-71
2021/03/08 11:06:18;;;;;;;16.08;8.63;;;256.20;1177.60;;;;;;5095738;28;20409;-71
2021/03/08 11:09:03;;;;;;;13.75;8.75;;;256.20;1152.00;;;;;;5096299;28;20023;-68
2021/03/08 11:11:33;;;;;;;13.25;8.60;;;256.40;1152.00;;;;;;5096730;28;20425;-70
2021/03/08 11:14:05;;;;;;;16.58;9.50;;;256.40;1152.00;;;;;;5097073;28;20047;-70
2021/03/08 11:16:33;;;;;;;15.13;9.65;;;256.50;1152.00;;;;;;5097197;28;20036;-72
2021/03/08 11:19:18;;;;;;;15.93;9.32;;;256.50;1203.20;;;;;;5097548;28;20035;-69
2021/03/08 11:21:45;;;;;;;18.00;9.98;;;256.80;1152.00;;;;;;5097456;28;20031;-70
2021/03/08 11:24:22;;;;;;;13.98;8.02;;;281.60;1126.40;;;;;;5097208;28;20028;-72
2021/03/08 11:27:10;;;;;;;12.13;8.00;;;281.70;1049.60;;;;;;5097150;28;20034;-73
2021/03/08 11:29:39;;;;;;;13.05;8.32;;;281.70;1049.60;;;;;;5097082;28;20020;-71
2021/03/08 11:32:07;;;;;;;16.05;10.07;;;281.80;1075.20;;;;;;5097419;28;20028;-71
2021/03/08 11:34:41;;;;;;;14.15;9.32;;;282.00;1075.20;;;;;;5097122;28;20022;-69
2021/03/08 11:37:17;;;;;;;15.98;8.48;;;282.50;1075.20;;;;;;5097129;28;20059;-70
2021/03/08 11:39:49;;;;;;;15.02;8.38;;;307.20;1024.00;;;;;;5096988;28;20032;-69
2021/03/08 11:42:20;;;;;;;14.63;8.38;;;307.50;1024.00;;;;;;5096055;28;20024;-70
2021/03/08 11:44:47;;;;;;;18.65;10.48;;;307.60;1024.00;;;;;;5096974;28;20024;-68
2021/03/08 11:47:14;;;;;;;12.00;8.55;;;307.90;1024.00;;;;;;5099927;28;20127;-72
2021/03/08 11:49:41;;;;;;;11.85;7.97;;;308.00;1024.00;;;;;;5100971;28;20024;-69
2021/03/08 11:52:08;;;;;;;34.13;8.82;;;332.90;998.40;;;;;;5100657;28;20030;-70
2021/03/08 11:54:34;;;;;;;14.25;7.32;;;333.20;998.40;;;;;;5100916;28;20055;-71
2021/03/08 11:57:05;;;;;;;11.48;7.93;;;333.10;947.20;;;;;;5099746;28;20093;-70
2021/03/08 11:59:31;;;;;;;10.00;6.68;;;333.30;947.20;;;;;;5099403;28;20077;-70
2021/03/08 12:01:57;;;;;;;12.23;7.85;;;333.50;896.00;;;;;;5089851;28;20024;-72
2021/03/08 12:04:23;;;;;;;12.77;8.32;;;358.50;947.20;;;;;;5099626;28;20345;-74
2021/03/08 12:06:49;;;;;;;12.57;8.95;;;358.70;921.60;;;;;;5100374;28;20121;-72
2021/03/08 12:09:15;;;;;;;14.85;10.07;;;384.50;896.00;;;;;;5100142;28;20450;-72
2021/03/08 12:11:41;;;;;;;15.00;10.48;;;487.30;768.00;;;;;;5100521;28;20024;-71
2021/03/08 12:14:07;;;;;;;12.40;8.10;;;615.00;716.80;;;;;;5100472;28;20031;-70
2021/03/08 12:16:54;;;;;;;11.52;7.75;;;665.60;640.00;;;;;;5095092;28;20228;-70
2021/03/08 12:19:20;;;;;;;12.00;8.40;;;691.60;588.80;;;;;;5099659;28;20112;-70
2021/03/08 12:21:47;;;;;;;11.70;7.70;;;692.00;588.80;;;;;;5098854;28;20027;-72
2021/03/08 12:24:14;;;;;;;12.95;8.75;;;692.10;563.20;;;;;;5099471;28;20111;-72
2021/03/08 12:29:24;;;;;;;13.52;9.13;;;768.70;563.20;;;;;;5099435;28;20178;-67
2021/03/08 12:31:50;;;;;;;12.45;8.93;;;793.90;563.20;;;;;;5100264;28;20134;-70